Forside
METAR-TAF:

METAR-TAF

Lufthavne :

Cloquet/Carlton County Airport

Cloquet, Minnesota, USA

Breddekreds: 46-42N, længdekreds: 092-30W, højde: 390 m

Aktuelle vejr

Denne rapport blev lavet for 25 minutter siden, kl. 12:35 UTC
Vind 6 kt fra østsydøst
Temperatur -3°C
Fugtighed 74%
Tryk 1016 hPa
Sigt: 16.1 km
Spredte skyer i en højde af 3700 ft
Brudte skyer i en højde af 7000 ft
Overskyet i en højde af 8500 ft

METAR: KCOQ 241235Z AUTO 11006KT 10SM SCT037 BKN070 OVC085 M03/M07 A3000 RMK AO2 TSNO

Tid: 07:00 (13:00 UTC)


TAF: fraværende

Vejrobservationer og prognoser fra mere end 4000 lufthavne (METAR og TAF).

De gule og røde prikker repræsenterer de meteorologiske stationer.

Flyt musen over at se navnet på stationen.

Så klik over at se vejr observationer og prognoser.

At skifte det kort: Klik på de grønne knapper med et sort kors for at zoome ind; på den grønne knap med en bindestreg for at zoome ud; eller på de grønne pile for tilstødende kort.


METAR-TAF: